createdAt,value
2018-08-23T00:02:20.678Z,9.17
2018-08-23T00:04:48.451Z,9.40
2018-08-23T00:07:16.310Z,10.60
2018-08-23T00:09:45.465Z,10.60
2018-08-23T00:12:13.243Z,11.17
2018-08-23T00:14:41.031Z,10.70
2018-08-23T00:17:08.816Z,11.73
2018-08-23T00:19:36.680Z,10.43
2018-08-23T00:22:04.550Z,11.20
2018-08-23T00:24:32.350Z,9.97
2018-08-23T00:27:00.674Z,10.03
2018-08-23T00:29:29.738Z,10.20
2018-08-23T00:32:02.141Z,9.53
2018-08-23T00:34:31.239Z,10.20
2018-08-23T00:36:59.462Z,10.53
2018-08-23T00:39:28.091Z,9.67
2018-08-23T00:42:01.163Z,10.43
2018-08-23T00:44:29.119Z,10.87
2018-08-23T00:46:57.691Z,9.70
2018-08-23T00:49:29.784Z,10.27
2018-08-23T00:51:57.587Z,10.77
2018-08-23T00:54:25.496Z,10.43
2018-08-23T00:56:53.422Z,10.57
2018-08-23T00:59:21.267Z,10.23
2018-08-23T01:01:58.291Z,9.93
2018-08-23T01:04:26.144Z,10.23
2018-08-23T01:06:53.987Z,11.13
2018-08-23T01:09:22.439Z,10.57
2018-08-23T01:11:50.279Z,11.00
2018-08-23T01:14:18.124Z,10.90
2018-08-23T01:16:51.163Z,11.30
2018-08-23T01:19:24.114Z,11.20
2018-08-23T01:21:55.976Z,9.80
2018-08-23T01:24:26.623Z,10.37
2018-08-23T01:26:54.472Z,10.27
2018-08-23T01:29:27.448Z,10.33
2018-08-23T01:31:56.043Z,10.80
2018-08-23T01:34:23.903Z,10.97
2018-08-23T01:36:51.705Z,11.23
2018-08-23T01:39:19.536Z,9.60
2018-08-23T01:41:47.424Z,9.97
2018-08-23T01:44:15.284Z,9.23
2018-08-23T01:46:45.064Z,9.00
2018-08-23T01:49:12.907Z,8.60
2018-08-23T01:51:40.700Z,8.80
2018-08-23T01:54:08.519Z,8.53
2018-08-23T01:56:36.295Z,9.77
2018-08-23T01:59:04.266Z,9.77
2018-08-23T02:01:32.038Z,8.97
2018-08-23T02:03:59.871Z,9.53
2018-08-23T02:06:33.640Z,8.70
2018-08-23T02:09:01.424Z,9.17
2018-08-23T02:11:29.222Z,9.07
2018-08-23T02:13:57.068Z,9.20
2018-08-23T02:16:24.870Z,9.97
2018-08-23T02:18:53.162Z,10.07
2018-08-23T02:21:21.015Z,10.30
2018-08-23T02:23:51.283Z,8.37
2018-08-23T02:26:19.686Z,8.23
2018-08-23T02:28:48.799Z,8.77
2018-08-23T02:31:16.631Z,9.50
2018-08-23T02:33:44.503Z,8.80
2018-08-23T02:36:18.409Z,9.23
2018-08-23T02:38:47.303Z,8.87
2018-08-23T02:41:15.579Z,10.40
2018-08-23T02:43:43.755Z,9.57
2018-08-23T02:46:11.644Z,8.67
2018-08-23T02:48:39.508Z,8.77
2018-08-23T02:51:07.311Z,9.63
2018-08-23T02:53:36.143Z,8.53
2018-08-23T02:56:05.453Z,8.20
2018-08-23T02:58:33.331Z,8.60
2018-08-23T03:01:04.227Z,8.77
2018-08-23T03:03:32.892Z,9.23
2018-08-23T03:06:00.696Z,9.33
2018-08-23T03:08:33.875Z,9.47
2018-08-23T03:11:01.675Z,9.50
2018-08-23T03:13:30.687Z,10.23
2018-08-23T03:15:58.539Z,10.43
2018-08-23T03:18:26.323Z,10.03
2018-08-23T03:20:59.395Z,9.23
2018-08-23T03:23:27.259Z,8.23
2018-08-23T03:25:55.103Z,7.20
2018-08-23T03:28:22.871Z,6.43
2018-08-23T03:30:58.664Z,5.73
2018-08-23T03:33:26.447Z,4.73
2018-08-23T03:35:54.227Z,4.53
2018-08-23T03:38:22.070Z,4.50
2018-08-23T03:40:49.906Z,3.20
2018-08-23T03:43:17.690Z,2.40
2018-08-23T03:45:45.524Z,2.70
2018-08-23T03:48:13.319Z,2.20
2018-08-23T03:50:46.312Z,1.83
2018-08-23T03:53:14.164Z,0.87
2018-08-23T03:55:41.940Z,1.33
2018-08-23T03:58:09.767Z,1.47
2018-08-23T04:00:50.931Z,1.60
2018-08-23T04:03:20.084Z,1.73
2018-08-23T04:05:48.048Z,1.30
2018-08-23T04:08:15.893Z,1.30
2018-08-23T04:10:43.765Z,1.27
2018-08-23T04:13:11.651Z,1.57
2018-08-23T04:15:39.484Z,1.80
2018-08-23T04:18:12.559Z,1.73
2018-08-23T04:20:45.769Z,1.60
2018-08-23T04:23:13.673Z,1.10
2018-08-23T04:25:41.499Z,1.27
2018-08-23T04:28:09.322Z,1.77
2018-08-23T04:30:37.139Z,1.37
2018-08-23T04:33:04.965Z,1.50
2018-08-23T04:35:32.753Z,2.23
2018-08-23T04:38:00.532Z,1.53
2018-08-23T04:40:28.333Z,1.60
2018-08-23T04:42:56.165Z,1.60
2018-08-23T04:45:28.043Z,1.30
2018-08-23T04:48:03.977Z,1.13
2018-08-23T04:50:31.872Z,0.77
2018-08-23T04:52:59.639Z,1.33
2018-08-23T04:55:27.524Z,1.03
2018-08-23T04:57:56.186Z,1.63
2018-08-23T05:00:24.072Z,1.33
2018-08-23T05:02:52.008Z,1.20
2018-08-23T05:05:19.861Z,1.27
2018-08-23T05:07:47.953Z,1.13
2018-08-23T05:10:15.795Z,1.10
2018-08-23T05:12:43.683Z,1.10
2018-08-23T05:15:11.448Z,1.43
2018-08-23T05:17:39.238Z,1.23
2018-08-23T05:20:07.209Z,0.93
2018-08-23T05:22:35.102Z,1.00
2018-08-23T05:25:17.322Z,1.40
2018-08-23T05:27:55.574Z,1.13
2018-08-23T05:30:23.660Z,1.13
2018-08-23T05:32:51.540Z,1.47
2018-08-23T05:35:19.464Z,0.87
2018-08-23T05:37:47.383Z,0.77
2018-08-23T05:40:15.155Z,1.50
2018-08-23T05:42:50.584Z,1.13
2018-08-23T05:45:18.448Z,1.20
2018-08-23T05:47:46.376Z,1.03
2018-08-23T05:50:14.284Z,1.43
2018-08-23T05:52:42.076Z,1.10
2018-08-23T05:55:09.908Z,1.50
2018-08-23T05:57:37.764Z,1.13
2018-08-23T06:00:05.592Z,1.20
2018-08-23T06:02:33.512Z,0.90
2018-08-23T06:05:01.380Z,1.20
2018-08-23T06:07:29.161Z,1.30
2018-08-23T06:09:56.980Z,1.20
2018-08-23T06:12:26.274Z,1.17
2018-08-23T06:14:54.115Z,1.20
2018-08-23T06:17:21.924Z,1.30
2018-08-23T06:19:49.791Z,1.83
2018-08-23T06:22:17.576Z,1.20
2018-08-23T06:24:45.344Z,1.33
2018-08-23T06:27:13.158Z,1.13
2018-08-23T06:29:41.038Z,1.03
2018-08-23T06:32:10.560Z,1.10
2018-08-23T06:34:53.290Z,1.47
2018-08-23T06:37:22.199Z,1.23
2018-08-23T06:39:50.006Z,1.20
2018-08-23T06:42:17.836Z,1.20
2018-08-23T06:44:50.788Z,1.33
2018-08-23T06:47:20.017Z,1.07
2018-08-23T06:49:48.977Z,1.40
2018-08-23T06:52:39.406Z,1.10
2018-08-23T06:55:09.474Z,1.00
2018-08-23T06:57:44.255Z,1.00
2018-08-23T07:00:12.316Z,1.73
2018-08-23T07:02:45.488Z,1.10
2018-08-23T07:05:13.297Z,1.33
2018-08-23T07:07:41.107Z,0.80
2018-08-23T07:10:09.023Z,1.10
2018-08-23T07:12:36.847Z,1.17
2018-08-23T07:15:04.685Z,1.10
2018-08-23T07:17:32.554Z,1.07
2018-08-23T07:20:02.549Z,1.03
2018-08-23T07:22:30.484Z,1.00
2018-08-23T07:24:58.749Z,1.43
2018-08-23T07:27:27.465Z,1.30
2018-08-23T07:29:56.526Z,0.87
2018-08-23T07:32:25.554Z,0.90
2018-08-23T07:34:59.181Z,1.17
2018-08-23T07:37:27.017Z,1.20
2018-08-23T07:40:00.023Z,0.83
2018-08-23T07:42:29.736Z,1.10
2018-08-23T07:44:58.036Z,0.83
2018-08-23T07:47:25.935Z,0.87
2018-08-23T07:49:55.155Z,1.10
2018-08-23T07:52:23.146Z,0.80
2018-08-23T07:54:51.159Z,0.80
2018-08-23T07:57:19.371Z,0.87
2018-08-23T07:59:47.603Z,1.00
2018-08-23T08:02:15.641Z,0.80
2018-08-23T08:04:43.535Z,0.80
2018-08-23T08:07:16.603Z,0.70
2018-08-23T08:09:44.683Z,1.10
2018-08-23T08:12:17.756Z,1.17
2018-08-23T08:14:45.613Z,1.13
2018-08-23T08:17:18.500Z,0.83
2018-08-23T08:19:51.507Z,0.70
2018-08-23T08:22:20.659Z,1.10
2018-08-23T08:24:50.174Z,1.13
2018-08-23T08:27:18.097Z,1.10
2018-08-23T08:29:45.835Z,1.33
2018-08-23T08:32:13.791Z,1.43
2018-08-23T08:34:44.860Z,1.40
2018-08-23T08:37:12.875Z,1.23
2018-08-23T08:39:40.921Z,0.73
2018-08-23T08:42:08.691Z,1.00
2018-08-23T08:44:36.927Z,0.93
2018-08-23T08:47:04.732Z,1.10
2018-08-23T08:49:33.862Z,1.20
2018-08-23T08:52:01.675Z,0.80
2018-08-23T08:54:29.493Z,1.00
2018-08-23T08:56:57.384Z,1.00
2018-08-23T08:59:28.463Z,0.80
2018-08-23T09:01:56.284Z,0.70
2018-08-23T09:04:29.230Z,0.87
2018-08-23T09:06:57.021Z,0.57
2018-08-23T09:09:31.784Z,0.50
2018-08-23T09:12:02.166Z,0.70
2018-08-23T09:14:29.952Z,0.80
2018-08-23T09:16:57.796Z,0.87
2018-08-23T09:19:30.917Z,1.53
2018-08-23T09:22:00.007Z,1.30
2018-08-23T09:24:28.334Z,0.80
2018-08-23T09:26:56.115Z,0.87
2018-08-23T09:29:30.184Z,1.10
2018-08-23T09:32:02.917Z,1.10
2018-08-23T09:34:30.853Z,1.23
2018-08-23T09:36:58.623Z,0.73
2018-08-23T09:39:26.451Z,1.33
2018-08-23T09:41:54.320Z,1.03
2018-08-23T09:44:22.091Z,0.90
2018-08-23T09:46:54.463Z,0.83
2018-08-23T09:49:23.035Z,0.90
2018-08-23T09:51:50.831Z,0.73
2018-08-23T09:54:23.900Z,1.00
2018-08-23T09:56:51.677Z,0.90
2018-08-23T09:59:19.528Z,0.87
2018-08-23T10:01:52.551Z,1.10
2018-08-23T10:04:25.744Z,0.90
2018-08-23T10:07:01.716Z,0.97
2018-08-23T10:09:30.765Z,1.47
2018-08-23T10:12:04.337Z,0.87
2018-08-23T10:14:37.307Z,1.60
2018-08-23T10:17:10.412Z,0.80
2018-08-23T10:19:43.298Z,0.97
2018-08-23T10:22:16.431Z,1.57
2018-08-23T10:24:44.263Z,0.97
2018-08-23T10:27:12.180Z,1.20
2018-08-23T10:29:39.964Z,0.90
2018-08-23T10:32:07.857Z,0.97
2018-08-23T10:34:35.771Z,0.97
2018-08-23T10:37:03.652Z,0.90
2018-08-23T10:39:31.571Z,1.03
2018-08-23T10:41:59.470Z,1.40
2018-08-23T10:44:27.298Z,1.07
2018-08-23T10:46:56.678Z,1.07
2018-08-23T10:49:24.815Z,0.97
2018-08-23T10:51:52.671Z,0.67
2018-08-23T10:54:20.799Z,0.70
2018-08-23T10:56:48.659Z,1.20
2018-08-23T10:59:16.513Z,1.00
2018-08-23T11:01:44.323Z,1.07
2018-08-23T11:04:12.187Z,1.20
2018-08-23T11:06:45.149Z,0.67
2018-08-23T11:09:18.258Z,1.07
2018-08-23T11:11:46.099Z,1.00
2018-08-23T11:14:19.095Z,1.07
2018-08-23T11:16:52.269Z,1.33
2018-08-23T11:19:25.226Z,0.87
2018-08-23T11:21:53.084Z,1.00
2018-08-23T11:24:20.939Z,0.63
2018-08-23T11:26:48.732Z,0.80
2018-08-23T11:29:16.510Z,0.83
2018-08-23T11:31:44.371Z,1.00
2018-08-23T11:34:12.143Z,1.07
2018-08-23T11:36:39.943Z,0.90
2018-08-23T11:39:08.643Z,1.33
2018-08-23T11:41:47.195Z,1.10
2018-08-23T11:44:14.970Z,1.10
2018-08-23T11:46:42.742Z,1.00
2018-08-23T11:49:10.483Z,0.90
2018-08-23T11:51:38.188Z,0.90
2018-08-23T11:54:05.958Z,0.97
2018-08-23T11:56:33.669Z,0.87
2018-08-23T11:59:01.535Z,0.90
2018-08-23T12:01:29.218Z,1.20
2018-08-23T12:03:56.922Z,1.10
2018-08-23T12:06:24.647Z,1.03
2018-08-23T12:08:52.403Z,0.90
2018-08-23T12:11:20.203Z,0.90
2018-08-23T12:13:49.454Z,0.70
2018-08-23T12:16:17.208Z,0.57
2018-08-23T12:18:44.941Z,0.87
2018-08-23T12:21:12.656Z,0.87
2018-08-23T12:23:40.414Z,0.73
2018-08-23T12:26:08.168Z,1.30
2018-08-23T12:28:41.156Z,1.03
2018-08-23T12:31:08.868Z,0.70
2018-08-23T12:33:36.633Z,1.10
2018-08-23T12:36:05.456Z,0.90
2018-08-23T12:38:38.426Z,0.70
2018-08-23T12:41:11.266Z,0.83
2018-08-23T12:43:44.533Z,1.10
2018-08-23T12:46:12.388Z,1.03
2018-08-23T12:48:40.162Z,0.97
2018-08-23T12:51:08.294Z,0.80
2018-08-23T12:53:36.134Z,0.87
2018-08-23T12:56:03.971Z,1.20
2018-08-23T12:58:31.828Z,1.17
2018-08-23T13:00:59.679Z,1.00
2018-08-23T13:03:27.580Z,1.00
2018-08-23T13:05:55.356Z,0.83
2018-08-23T13:08:23.283Z,1.37
2018-08-23T13:10:51.187Z,1.00
2018-08-23T13:13:19.043Z,1.30
2018-08-23T13:15:46.819Z,0.73
2018-08-23T13:18:14.655Z,1.20
2018-08-23T13:20:42.455Z,1.17
2018-08-23T13:23:10.267Z,1.23
2018-08-23T13:25:42.258Z,1.17
2018-08-23T13:28:10.092Z,1.23
2018-08-23T13:30:37.934Z,1.47
2018-08-23T13:33:05.895Z,1.60
2018-08-23T13:35:33.696Z,1.27
2018-08-23T13:38:01.511Z,1.07
2018-08-23T13:40:29.275Z,1.20
2018-08-23T13:42:57.092Z,1.20
2018-08-23T13:45:24.970Z,0.90
2018-08-23T13:47:52.874Z,1.00
2018-08-23T13:50:20.701Z,0.93
2018-08-23T13:52:48.591Z,1.30
2018-08-23T13:55:16.388Z,1.30
2018-08-23T13:57:44.243Z,1.13
2018-08-23T14:00:16.297Z,0.87
2018-08-23T14:02:44.223Z,0.83
2018-08-23T14:05:12.083Z,1.40
2018-08-23T14:07:40.148Z,1.07
2018-08-23T14:10:07.910Z,1.20
2018-08-23T14:12:35.768Z,1.00
2018-08-23T14:15:03.591Z,0.87
2018-08-23T14:17:31.386Z,1.60
2018-08-23T14:19:59.227Z,1.40
2018-08-23T14:22:27.081Z,1.60
2018-08-23T14:24:54.893Z,1.23
2018-08-23T14:27:22.750Z,1.17
2018-08-23T14:29:50.594Z,0.97
2018-08-23T14:32:18.409Z,1.30
2018-08-23T14:34:46.275Z,1.80
2018-08-23T14:37:14.062Z,1.30
2018-08-23T14:39:41.851Z,0.90
2018-08-23T14:42:09.619Z,0.80
2018-08-23T14:44:37.480Z,1.00
2018-08-23T14:47:10.601Z,1.63
2018-08-23T14:49:38.646Z,1.30
2018-08-23T14:52:06.967Z,1.10
2018-08-23T14:54:41.326Z,1.07
2018-08-23T14:57:14.439Z,1.33
2018-08-23T14:59:42.724Z,1.57
2018-08-23T15:02:10.496Z,0.90
2018-08-23T15:04:38.317Z,0.83
2018-08-23T15:07:06.363Z,1.17
2018-08-23T15:09:34.138Z,1.13
2018-08-23T15:12:02.125Z,1.20
2018-08-23T15:14:29.904Z,1.03
2018-08-23T15:16:57.768Z,1.40
2018-08-23T15:19:25.703Z,1.03
2018-08-23T15:21:53.579Z,1.20
2018-08-23T15:24:21.350Z,1.20
2018-08-23T15:26:49.307Z,1.20
2018-08-23T15:29:17.023Z,1.17
2018-08-23T15:31:45.516Z,1.10
2018-08-23T15:34:13.302Z,1.43
2018-08-23T15:36:41.203Z,1.30
2018-08-23T15:39:10.300Z,1.40
2018-08-23T15:41:38.426Z,1.40
2018-08-23T15:44:06.467Z,1.20
2018-08-23T15:46:39.721Z,1.20
2018-08-23T15:49:07.550Z,1.27
2018-08-23T15:51:35.620Z,0.80
2018-08-23T15:54:03.432Z,1.33
2018-08-23T15:56:31.320Z,1.07
2018-08-23T15:58:59.180Z,1.23
2018-08-23T16:01:27.036Z,1.10
2018-08-23T16:03:55.176Z,1.27
2018-08-23T16:06:23.085Z,1.53
2018-08-23T16:08:50.928Z,1.07
2018-08-23T16:11:19.582Z,1.33
2018-08-23T16:13:47.653Z,1.40
2018-08-23T16:17:22.795Z,0.77
2018-08-23T16:19:55.841Z,1.20
2018-08-23T16:22:23.671Z,1.30
2018-08-23T16:24:51.456Z,1.00
2018-08-23T16:27:19.267Z,1.40
2018-08-23T16:29:49.032Z,1.27
2018-08-23T16:32:22.131Z,1.43
2018-08-23T16:34:49.895Z,1.60
2018-08-23T16:37:17.801Z,1.30
2018-08-23T16:39:45.865Z,1.33
2018-08-23T16:42:13.671Z,1.30
2018-08-23T16:44:41.499Z,1.13
2018-08-23T16:47:09.379Z,1.33
2018-08-23T16:49:37.517Z,1.13
2018-08-23T16:52:05.306Z,1.20
2018-08-23T16:54:33.216Z,1.13
2018-08-23T16:57:00.986Z,1.30
2018-08-23T16:59:28.861Z,1.37
2018-08-23T17:01:56.736Z,1.30
2018-08-23T17:04:29.728Z,1.27
2018-08-23T17:06:57.519Z,1.30
2018-08-23T17:09:25.389Z,1.30
2018-08-23T17:11:53.290Z,1.40
2018-08-23T17:14:21.138Z,1.50
2018-08-23T17:16:54.123Z,0.97
2018-08-23T17:19:21.950Z,1.23
2018-08-23T17:21:49.739Z,2.80
2018-08-23T17:24:17.652Z,2.50
2018-08-23T17:26:45.441Z,3.13
2018-08-23T17:29:13.239Z,2.77
2018-08-23T17:31:41.074Z,2.87
2018-08-23T17:34:08.920Z,3.33
2018-08-23T17:36:36.796Z,3.10
2018-08-23T17:39:05.426Z,3.57
2018-08-23T17:41:33.284Z,3.60
2018-08-23T17:44:01.111Z,4.23
2018-08-23T17:46:28.915Z,3.83
2018-08-23T17:48:56.758Z,3.80
2018-08-23T17:51:24.606Z,3.90
2018-08-23T17:53:52.396Z,3.67
2018-08-23T17:56:20.174Z,3.90
2018-08-23T17:58:47.978Z,3.70
2018-08-23T18:01:15.762Z,3.03
2018-08-23T18:03:43.653Z,3.50
2018-08-23T18:06:11.427Z,2.87
2018-08-23T18:08:39.311Z,3.37
2018-08-23T18:11:07.226Z,3.50
2018-08-23T18:13:35.046Z,3.57
2018-08-23T18:16:08.129Z,10.80
2018-08-23T18:18:36.210Z,3.43
2018-08-23T18:21:04.103Z,3.50
2018-08-23T18:23:31.940Z,3.80
2018-08-23T18:25:59.783Z,3.33
2018-08-23T18:28:27.581Z,2.97
2018-08-23T18:30:55.378Z,2.90
2018-08-23T18:33:23.281Z,3.07
2018-08-23T18:35:51.138Z,3.17
2018-08-23T18:38:18.970Z,3.47
2018-08-23T18:40:46.776Z,2.90
2018-08-23T18:43:14.669Z,3.50
2018-08-23T18:45:42.509Z,3.70
2018-08-23T18:48:10.297Z,3.30
2018-08-23T18:50:38.087Z,3.47
2018-08-23T18:53:05.927Z,3.20
2018-08-23T18:55:33.783Z,3.30
2018-08-23T18:58:01.667Z,3.17
2018-08-23T19:00:29.609Z,3.00
2018-08-23T19:02:57.448Z,2.97
2018-08-23T19:05:25.321Z,2.47
2018-08-23T19:07:53.123Z,4.07
2018-08-23T19:10:20.902Z,3.10
2018-08-23T19:12:48.873Z,2.50
2018-08-23T19:15:20.890Z,2.53
2018-08-23T19:17:48.692Z,2.60
2018-08-23T19:20:16.461Z,2.37
2018-08-23T19:22:44.291Z,2.53
2018-08-23T19:25:12.197Z,2.77
2018-08-23T19:27:39.970Z,2.50
2018-08-23T19:30:08.271Z,3.07
2018-08-23T19:32:36.159Z,2.60
2018-08-23T19:35:04.100Z,13.57
2018-08-23T19:37:32.055Z,13.53
2018-08-23T19:39:59.847Z,3.80
2018-08-23T19:42:27.691Z,2.93
2018-08-23T19:44:59.611Z,2.90
2018-08-23T19:47:32.749Z,2.80
2018-08-23T19:50:02.959Z,2.80
2018-08-23T19:52:30.752Z,2.50
2018-08-23T19:54:58.655Z,2.53
2018-08-23T19:57:26.422Z,2.50
2018-08-23T19:59:54.307Z,2.63
2018-08-23T20:02:22.156Z,2.60
2018-08-23T20:04:49.985Z,2.93
2018-08-23T20:07:17.854Z,3.27
2018-08-23T20:09:45.704Z,2.70
2018-08-23T20:12:13.555Z,3.67
2018-08-23T20:14:41.424Z,3.50
2018-08-23T20:17:09.205Z,3.67
2018-08-23T20:19:37.075Z,3.20
2018-08-23T20:22:06.642Z,2.90
2018-08-23T20:24:34.524Z,3.40
2018-08-23T20:27:02.295Z,3.00
2018-08-23T20:29:30.070Z,3.30
2018-08-23T20:31:57.859Z,3.03
2018-08-23T20:34:25.706Z,3.70
2018-08-23T20:36:53.540Z,3.30
2018-08-23T20:39:21.452Z,2.70
2018-08-23T20:41:49.292Z,3.30
2018-08-23T20:44:17.131Z,3.50
2018-08-23T20:46:45.065Z,3.10
2018-08-23T20:49:12.854Z,3.07
2018-08-23T20:51:40.731Z,3.10
2018-08-23T20:54:08.990Z,3.27
2018-08-23T20:56:36.880Z,3.90
2018-08-23T20:59:05.067Z,4.10
2018-08-23T21:01:32.851Z,4.30
2018-08-23T21:04:00.727Z,3.70
2018-08-23T21:06:28.764Z,3.80
2018-08-23T21:08:56.664Z,3.43
2018-08-23T21:11:24.568Z,3.50
2018-08-23T21:13:52.439Z,3.80
2018-08-23T21:16:20.239Z,3.87
2018-08-23T21:18:48.051Z,4.00
2018-08-23T21:21:15.991Z,3.20
2018-08-23T21:23:43.847Z,3.63
2018-08-23T21:26:11.637Z,3.27
2018-08-23T21:28:39.429Z,3.27
2018-08-23T21:31:07.222Z,3.57
2018-08-23T21:33:35.007Z,3.50
2018-08-23T21:36:02.783Z,3.90
2018-08-23T21:38:30.633Z,3.50
2018-08-23T21:40:58.414Z,3.03
2018-08-23T21:43:26.203Z,2.93
2018-08-23T21:45:54.157Z,3.03
2018-08-23T21:48:21.975Z,3.40
2018-08-23T21:50:49.865Z,2.87
2018-08-23T21:53:17.630Z,3.50
2018-08-23T21:55:45.415Z,3.10
2018-08-23T21:58:13.228Z,3.00
2018-08-23T22:00:46.472Z,2.63
2018-08-23T22:03:14.610Z,3.00
2018-08-23T22:05:42.927Z,2.60
2018-08-23T22:08:11.154Z,2.97
2018-08-23T22:10:39.003Z,2.90
2018-08-23T22:13:06.935Z,2.80
2018-08-23T22:15:38.404Z,3.00
2018-08-23T22:18:06.299Z,2.50
2018-08-23T22:20:34.147Z,2.90
2018-08-23T22:23:02.046Z,2.63
2018-08-23T22:25:29.875Z,3.00
2018-08-23T22:27:57.711Z,3.00
2018-08-23T22:30:25.539Z,2.47
2018-08-23T22:32:53.363Z,2.87
2018-08-23T22:35:21.178Z,3.23
2018-08-23T22:37:48.939Z,3.73
2018-08-23T22:40:16.690Z,3.53
2018-08-23T22:42:44.540Z,3.00
2018-08-23T22:45:12.376Z,3.63
2018-08-23T22:47:40.207Z,3.40
2018-08-23T22:50:08.140Z,3.07
2018-08-23T22:52:35.972Z,3.10
2018-08-23T22:55:03.884Z,3.30
2018-08-23T22:57:31.659Z,3.00
2018-08-23T22:59:59.524Z,2.90
2018-08-23T23:02:32.472Z,2.70
2018-08-23T23:05:00.251Z,2.70
2018-08-23T23:07:28.011Z,2.93
2018-08-23T23:09:55.907Z,2.80
2018-08-23T23:12:23.712Z,2.83
2018-08-23T23:14:51.484Z,3.27
2018-08-23T23:17:19.263Z,3.50
2018-08-23T23:19:47.102Z,3.17
2018-08-23T23:22:14.955Z,2.70
2018-08-23T23:24:48.154Z,3.20
2018-08-23T23:27:16.027Z,2.77
2018-08-23T23:29:43.819Z,2.87
2018-08-23T23:32:11.644Z,3.00
2018-08-23T23:34:39.529Z,3.00
2018-08-23T23:37:07.367Z,3.23
2018-08-23T23:39:35.199Z,3.30
2018-08-23T23:42:03.027Z,3.00
2018-08-23T23:44:31.001Z,2.83
2018-08-23T23:46:58.779Z,2.80
2018-08-23T23:49:26.563Z,2.60
2018-08-23T23:51:54.351Z,3.20
2018-08-23T23:54:22.119Z,3.30
2018-08-23T23:56:49.900Z,2.50
2018-08-23T23:59:17.684Z,2.97
